Time;durP1;ratioP1;P1;durP2;ratioP2;P2;SDS_P1;SDS_P2;PMS_P1;PMS_P2;Temp;Humidity;BMP_temperature;BMP_pressure;BME280_temperature;BME280_humidity;BME280_pressure;Samples;Min_cycle;Max_cycle;Signal;HPM_P1;HPM_P2
2021/09/28 00:02:16;;;;;;;3.83;2.63;;;;;;;14.09;98.45;101020.88;5005561;28;20844;-79
2021/09/28 00:04:44;;;;;;;5.17;2.40;;;;;;;14.02;98.80;101024.56;5005737;28;20200;-78
2021/09/28 00:07:10;;;;;;;6.90;2.27;;;;;;;13.96;99.11;101016.84;5004649;28;20642;-79
2021/09/28 00:09:36;;;;;;;2.90;2.27;;;;;;;13.97;99.43;101014.16;5011408;28;20208;-79
2021/09/28 00:12:03;;;;;;;3.07;2.43;;;;;;;13.94;98.92;101014.25;5007903;28;20234;-80
2021/09/28 00:14:29;;;;;;;5.03;1.90;;;;;;;14.00;99.13;101006.22;5004731;28;20224;-79
2021/09/28 00:16:56;;;;;;;2.63;2.07;;;;;;;14.01;99.16;101013.19;5004981;28;20229;-79
2021/09/28 00:19:22;;;;;;;4.77;2.23;;;;;;;13.80;99.56;101006.69;5004811;28;20256;-79
2021/09/28 00:21:50;;;;;;;2.90;2.67;;;;;;;13.82;100.00;100991.75;5004743;28;20221;-79
2021/09/28 00:24:17;;;;;;;2.93;2.33;;;;;;;13.72;100.00;100982.38;5003151;28;20231;-80
2021/09/28 00:26:43;;;;;;;4.60;2.40;;;;;;;13.70;100.00;100979.78;5006027;28;20266;-79
2021/09/28 00:29:09;;;;;;;2.67;2.47;;;;;;;13.71;100.00;100978.03;5003376;28;20207;-79
2021/09/28 00:31:36;;;;;;;3.13;2.73;;;;;;;13.66;100.00;100990.41;5005179;28;20616;-79
2021/09/28 00:34:02;;;;;;;3.67;3.13;;;;;;;13.78;100.00;100984.00;5008319;28;20574;-80
2021/09/28 00:36:29;;;;;;;3.40;2.73;;;;;;;13.68;100.00;100988.59;5007519;28;20221;-78
2021/09/28 00:38:56;;;;;;;4.53;3.23;;;;;;;13.65;100.00;100980.78;5014166;28;20268;-79
2021/09/28 00:41:23;;;;;;;3.00;2.80;;;;;;;13.80;100.00;100972.56;5011499;28;20634;-80
2021/09/28 00:43:51;;;;;;;5.10;3.63;;;;;;;13.80;100.00;100985.69;5007609;28;20246;-78
2021/09/28 00:46:18;;;;;;;4.10;3.33;;;;;;;13.88;100.00;100994.25;5007830;28;20236;-79
2021/09/28 00:48:45;;;;;;;4.90;4.50;;;;;;;13.88;100.00;101002.13;5005767;28;20260;-79
2021/09/28 00:51:13;;;;;;;7.17;5.07;;;;;;;13.80;100.00;101011.09;5007603;28;20254;-79
2021/09/28 00:53:40;;;;;;;7.10;6.50;;;;;;;13.70;100.00;100999.94;5007985;28;20252;-79
2021/09/28 00:56:10;;;;;;;7.60;6.90;;;;;;;13.74;100.00;100987.59;5006145;28;20232;-78
2021/09/28 00:58:38;;;;;;;7.77;7.17;;;;;;;13.75;100.00;100991.94;5006290;28;20259;-79
2021/09/28 01:01:04;;;;;;;10.37;7.67;;;;;;;13.80;100.00;100996.19;5008266;28;20231;-80
2021/09/28 01:03:32;;;;;;;8.80;8.00;;;;;;;13.88;100.00;100996.88;5006927;28;20291;-77
2021/09/28 01:05:59;;;;;;;7.77;7.17;;;;;;;13.89;100.00;101016.09;5006084;28;20845;-79
2021/09/28 01:08:25;;;;;;;7.77;7.00;;;;;;;13.97;100.00;101029.91;5011455;28;20204;-78
2021/09/28 01:10:52;;;;;;;8.90;8.00;;;;;;;13.78;99.88;101041.75;5013314;28;20204;-78
2021/09/28 01:13:20;;;;;;;7.97;7.33;;;;;;;13.76;100.00;101044.38;5006049;28;20656;-79
2021/09/28 01:15:48;;;;;;;8.00;7.33;;;;;;;13.78;100.00;101033.88;5006126;28;20707;-79
2021/09/28 01:18:15;;;;;;;8.27;7.67;;;;;;;13.91;100.00;101045.78;5006134;28;20196;-80
2021/09/28 01:20:43;;;;;;;8.33;7.57;;;;;;;13.81;99.70;101060.03;5007848;28;20228;-79
2021/09/28 01:23:09;;;;;;;7.63;7.13;;;;;;;13.67;99.12;101065.56;5005772;28;20198;-80
2021/09/28 01:25:39;;;;;;;7.93;7.23;;;;;;;13.82;99.50;101057.38;4997126;28;20220;-80
2021/09/28 01:28:06;;;;;;;7.30;6.80;;;;;;;13.75;99.13;101068.03;4995870;28;20672;-80
2021/09/28 01:30:33;;;;;;;8.03;7.23;;;;;;;13.81;99.85;101062.66;4997011;28;20300;-81
2021/09/28 01:32:59;;;;;;;7.80;7.20;;;;;;;13.85;99.18;101067.78;4996896;28;20205;-79
2021/09/28 01:35:25;;;;;;;7.40;6.80;;;;;;;13.74;98.76;101087.31;4997181;28;20225;-78
2021/09/28 01:37:53;;;;;;;7.87;6.63;;;;;;;13.60;98.48;101105.97;5001339;28;20204;-79
2021/09/28 01:40:19;;;;;;;8.13;7.53;;;;;;;13.45;98.56;101101.88;5027351;28;20198;-80
2021/09/28 01:42:46;;;;;;;9.10;7.27;;;;;;;13.26;99.12;101082.97;5035055;28;20203;-79
2021/09/28 01:45:12;;;;;;;13.70;8.37;;;;;;;13.13;100.00;101058.78;5036697;28;20203;-80
2021/09/28 01:47:39;;;;;;;8.10;7.37;;;;;;;12.94;100.00;101054.78;5036822;28;20613;-79
2021/09/28 01:50:06;;;;;;;9.60;7.80;;;;;;;12.93;100.00;101030.34;5036077;28;20207;-79
2021/09/28 01:52:34;;;;;;;8.30;7.60;;;;;;;13.03;100.00;101023.16;5036075;28;20251;-80
2021/09/28 01:55:02;;;;;;;8.63;8.03;;;;;;;13.13;100.00;101022.09;5035632;28;20209;-80
2021/09/28 01:57:29;;;;;;;9.23;7.57;;;;;;;13.29;100.00;101014.78;5035548;28;20265;-79
2021/09/28 01:59:55;;;;;;;7.60;6.90;;;;;;;13.28;100.00;101048.00;5035746;28;20199;-79
2021/09/28 02:02:21;;;;;;;9.83;7.03;;;;;;;13.29;99.80;101083.81;5035488;28;20247;-80
2021/09/28 02:04:48;;;;;;;7.13;6.40;;;;;;;13.36;99.19;101110.81;5035730;28;20617;-79
2021/09/28 02:07:14;;;;;;;7.93;7.17;;;;;;;13.26;98.46;101132.81;5035449;28;20223;-80
2021/09/28 02:09:40;;;;;;;8.17;6.80;;;;;;;13.40;98.56;101143.94;5023657;28;20209;-79
2021/09/28 02:12:09;;;;;;;7.00;6.40;;;;;;;13.55;98.25;101144.53;5034662;28;20258;-79
2021/09/28 02:14:35;;;;;;;6.60;6.00;;;;;;;13.61;98.05;101160.16;5034856;28;20604;-79
2021/09/28 02:17:01;;;;;;;6.47;5.97;;;;;;;13.63;97.02;101184.59;5036171;28;20714;-79
2021/09/28 02:19:28;;;;;;;7.13;6.37;;;;;;;13.58;96.47;101189.09;5035136;28;20255;-80
2021/09/28 02:21:54;;;;;;;5.60;5.10;;;;;;;13.68;96.63;101196.72;5034751;28;20231;-79
2021/09/28 02:24:21;;;;;;;6.23;5.03;;;;;;;13.76;96.56;101196.56;5034562;28;20678;-79
2021/09/28 02:26:47;;;;;;;11.57;5.20;;;;;;;13.74;95.23;101236.88;5034395;28;20314;-81
2021/09/28 02:29:15;;;;;;;5.53;5.13;;;;;;;13.77;94.96;101240.28;5034309;28;20603;-77
2021/09/28 02:31:41;;;;;;;7.20;4.97;;;;;;;13.80;94.65;101255.13;5034610;28;20611;-77
2021/09/28 02:34:10;;;;;;;5.50;5.00;;;;;;;13.81;94.20;101270.81;5034679;28;20580;-80
2021/09/28 02:36:37;;;;;;;6.77;6.23;;;;;;;13.77;93.77;101279.63;5034207;28;20265;-81
2021/09/28 02:39:04;;;;;;;8.87;6.30;;;;;;;13.77;93.45;101291.91;5028800;28;20211;-80
2021/09/28 02:41:31;;;;;;;7.30;6.70;;;;;;;13.55;94.09;101271.31;5028765;28;20708;-79
2021/09/28 02:43:57;;;;;;;7.70;7.10;;;;;;;13.58;94.41;101255.50;5034650;28;20230;-80
2021/09/28 02:46:25;;;;;;;8.90;8.07;;;;;;;13.43;94.76;101259.25;5034327;28;20224;-80
2021/09/28 02:48:51;;;;;;;7.17;6.60;;;;;;;13.47;95.42;101231.22;5034226;28;20211;-78
2021/09/28 02:51:18;;;;;;;9.73;7.77;;;;;;;13.26;94.10;101264.78;5034086;28;20196;-80
2021/09/28 02:53:44;;;;;;;9.23;7.23;;;;;;;13.29;94.78;101250.75;5028161;28;20262;-79
2021/09/28 02:56:10;;;;;;;8.70;7.90;;;;;;;13.24;94.39;101261.31;5025191;28;20583;-79
2021/09/28 02:58:37;;;;;;;7.77;6.80;;;;;;;13.29;94.47;101256.88;5033719;28;20618;-78
2021/09/28 03:01:03;;;;;;;9.07;8.13;;;;;;;13.39;94.32;101261.97;5033727;28;20771;-80
2021/09/28 03:03:31;;;;;;;8.27;7.57;;;;;;;13.38;94.31;101274.22;5023639;28;20206;-78
2021/09/28 03:05:57;;;;;;;9.73;8.70;;;;;;;13.03;94.75;101259.03;5032128;28;20224;-79
2021/09/28 03:08:23;;;;;;;8.67;7.90;;;;;;;13.17;95.47;101237.84;5026580;28;20220;-80
2021/09/28 03:10:50;;;;;;;12.10;9.10;;;;;;;13.06;94.98;101238.00;5030721;28;20265;-79
2021/09/28 03:13:16;;;;;;;8.83;8.07;;;;;;;13.19;95.00;101234.31;5034124;28;20203;-78
2021/09/28 03:15:42;;;;;;;10.40;9.70;;;;;;;13.11;94.80;101246.69;5032960;28;20220;-79
2021/09/28 03:18:09;;;;;;;9.13;8.43;;;;;;;13.10;94.84;101248.44;5033430;28;20207;-78
2021/09/28 03:20:37;;;;;;;9.10;8.27;;;;;;;13.22;95.04;101233.38;5033145;28;20206;-79
2021/09/28 03:23:03;;;;;;;8.73;8.03;;;;;;;13.25;95.05;101242.06;5033182;28;20626;-80
2021/09/28 03:25:29;;;;;;;9.03;8.33;;;;;;;13.22;94.50;101265.72;5032820;28;20288;-78
2021/09/28 03:27:56;;;;;;;9.37;8.57;;;;;;;13.16;94.13;101270.19;5033270;28;20269;-78
2021/09/28 03:30:22;;;;;;;9.93;9.13;;;;;;;12.83;94.70;101261.97;5032527;28;20242;-80
2021/09/28 03:32:49;;;;;;;9.80;8.80;;;;;;;12.95;95.35;101239.97;5032998;28;20260;-79
2021/09/28 03:35:15;;;;;;;9.07;8.30;;;;;;;13.05;95.32;101234.53;5032366;28;20203;-79
2021/09/28 03:37:44;;;;;;;9.23;8.33;;;;;;;13.10;95.24;101253.69;5032174;28;20203;-78
2021/09/28 03:40:12;;;;;;;8.97;8.17;;;;;;;13.14;94.61;101267.63;5024199;28;20210;-79
2021/09/28 03:42:38;;;;;;;8.70;8.07;;;;;;;13.22;94.62;101257.88;5032624;28;20246;-79
2021/09/28 03:45:06;;;;;;;9.00;8.23;;;;;;;13.17;94.64;101285.03;5032304;28;20207;-79
2021/09/28 03:47:32;;;;;;;8.77;8.03;;;;;;;13.03;94.98;101274.78;5032554;28;20613;-79
2021/09/28 03:49:59;;;;;;;7.97;7.20;;;;;;;13.09;94.77;101272.91;5031920;28;20208;-79
2021/09/28 03:52:25;;;;;;;8.90;8.13;;;;;;;13.18;94.75;101284.13;5032577;28;20204;-79
2021/09/28 03:54:53;;;;;;;7.63;6.10;;;;;;;13.22;94.87;101265.72;5032090;28;20210;-79
2021/09/28 03:57:19;;;;;;;7.37;6.73;;;;;;;13.28;94.94;101264.75;5031977;28;20227;-79
2021/09/28 03:59:46;;;;;;;7.07;6.17;;;;;;;13.28;94.28;101289.22;5031984;28;20628;-79
2021/09/28 04:02:13;;;;;;;7.43;6.83;;;;;;;13.29;93.86;101306.69;5032077;28;20634;-79
2021/09/28 04:04:40;;;;;;;7.00;6.40;;;;;;;13.30;93.72;101315.47;5031701;28;20207;-79
2021/09/28 04:07:06;;;;;;;7.13;6.63;;;;;;;13.34;93.29;101324.13;5034155;28;20231;-79
2021/09/28 04:09:33;;;;;;;6.90;6.40;;;;;;;13.30;93.03;101328.56;5027148;28;20727;-79
2021/09/28 04:12:01;;;;;;;6.43;5.93;;;;;;;13.26;93.19;101332.94;5035943;28;20200;-78
2021/09/28 04:14:27;;;;;;;6.53;5.83;;;;;;;13.16;93.16;101334.00;5035695;28;20208;-79
2021/09/28 04:16:54;;;;;;;7.23;6.57;;;;;;;13.20;93.51;101322.56;5035225;28;20231;-79
2021/09/28 04:19:21;;;;;;;7.07;6.33;;;;;;;13.20;93.30;101313.81;5034726;28;20255;-79
2021/09/28 04:21:47;;;;;;;6.63;6.20;;;;;;;13.20;93.21;101321.69;5035071;28;20762;-79
2021/09/28 04:24:15;;;;;;;6.93;5.93;;;;;;;13.23;93.06;101340.84;5035471;28;20206;-78
2021/09/28 04:26:41;;;;;;;6.77;6.17;;;;;;;13.19;92.91;101349.66;5031957;28;20229;-80
2021/09/28 04:29:09;;;;;;;7.33;6.67;;;;;;;13.18;92.90;101339.19;5028437;28;20222;-80
2021/09/28 04:31:35;;;;;;;6.33;5.83;;;;;;;13.18;93.36;101345.31;5038279;28;20199;-82
2021/09/28 04:34:02;;;;;;;5.93;5.30;;;;;;;13.12;93.44;101340.13;5037935;28;20209;-81
2021/09/28 04:36:28;;;;;;;6.27;5.73;;;;;;;13.10;92.68;101352.41;5036707;28;20231;-82
2021/09/28 04:38:55;;;;;;;6.37;5.73;;;;;;;13.04;92.97;101348.16;5036294;28;20271;-82
2021/09/28 04:41:21;;;;;;;5.97;5.57;;;;;;;13.08;93.28;101347.22;5036754;28;20290;-81
2021/09/28 04:43:48;;;;;;;8.27;6.10;;;;;;;13.06;93.57;101335.00;5036821;28;20262;-81
2021/09/28 04:46:16;;;;;;;5.87;5.33;;;;;;;13.05;93.12;101344.63;5036676;28;20310;-81
2021/09/28 04:48:43;;;;;;;6.27;5.67;;;;;;;13.05;93.65;101349.00;5036275;28;20215;-82
2021/09/28 04:51:09;;;;;;;5.90;5.30;;;;;;;12.99;93.69;101352.56;5036681;28;20601;-82
2021/09/28 04:53:35;;;;;;;6.13;5.63;;;;;;;12.95;93.39;101347.41;5036168;28;20673;-82
2021/09/28 04:56:02;;;;;;;6.40;5.80;;;;;;;12.96;93.63;101359.59;5036340;28;20795;-81
2021/09/28 04:58:28;;;;;;;6.27;5.67;;;;;;;12.93;93.80;101347.41;5027318;28;20274;-82
2021/09/28 05:00:55;;;;;;;7.23;6.50;;;;;;;12.95;93.65;101366.63;5034087;28;20253;-82
2021/09/28 05:03:22;;;;;;;6.47;5.80;;;;;;;12.95;93.18;101376.22;5036323;28;20238;-82
2021/09/28 05:05:49;;;;;;;6.83;6.23;;;;;;;12.88;93.28;101370.19;5035684;28;20232;-82
2021/09/28 05:08:15;;;;;;;7.43;6.13;;;;;;;12.87;93.62;101371.09;5036026;28;20280;-83
2021/09/28 05:10:42;;;;;;;6.57;6.00;;;;;;;12.85;93.00;101360.63;5036054;28;20211;-82
2021/09/28 05:13:08;;;;;;;7.57;6.87;;;;;;;12.84;93.46;101369.38;5035245;28;20447;-80
2021/09/28 05:15:35;;;;;;;8.90;8.10;;;;;;;12.48;93.79;101355.84;5035261;28;20257;-82
2021/09/28 05:18:01;;;;;;;9.20;8.23;;;;;;;12.59;94.25;101326.06;5035821;28;20191;-82
2021/09/28 05:20:29;;;;;;;9.13;7.87;;;;;;;12.63;94.85;101317.28;5035021;28;20211;-82
2021/09/28 05:22:55;;;;;;;8.70;7.93;;;;;;;12.67;94.45;101325.06;5035670;28;20306;-79
2021/09/28 05:25:22;;;;;;;8.60;7.90;;;;;;;12.69;94.60;101332.91;5035186;28;20236;-81
2021/09/28 05:27:48;;;;;;;7.70;7.00;;;;;;;12.69;94.32;101349.47;5032109;28;20577;-82
2021/09/28 05:30:15;;;;;;;9.60;8.60;;;;;;;12.68;94.30;101354.72;5027083;28;20748;-81
2021/09/28 05:32:41;;;;;;;10.43;9.43;;;;;;;12.67;94.43;101359.13;5035576;28;20248;-81
2021/09/28 05:35:09;;;;;;;12.20;11.00;;;;;;;12.68;94.26;101365.22;5034935;28;20270;-81
2021/09/28 05:37:36;;;;;;;10.47;9.40;;;;;;;12.67;94.14;101366.13;5035507;28;20203;-79
2021/09/28 05:40:04;;;;;;;10.47;9.53;;;;;;;12.68;94.49;101362.59;5034902;28;20633;-81
2021/09/28 05:42:30;;;;;;;10.17;9.33;;;;;;;12.64;94.65;101353.91;5034680;28;20255;-81
2021/09/28 05:44:57;;;;;;;10.93;9.70;;;;;;;12.66;94.47;101362.59;5035301;28;20821;-81
2021/09/28 05:47:24;;;;;;;11.37;10.27;;;;;;;12.64;93.96;101374.00;5035345;28;20220;-80
2021/09/28 05:49:51;;;;;;;13.27;11.77;;;;;;;12.67;94.06;101377.44;5034765;28;20682;-81
2021/09/28 05:52:18;;;;;;;12.63;11.33;;;;;;;12.55;94.17;101372.38;5034858;28;20251;-81
2021/09/28 05:54:48;;;;;;;11.70;10.37;;;;;;;12.61;94.32;101366.19;5034781;28;20239;-81
2021/09/28 05:57:15;;;;;;;10.03;9.07;;;;;;;12.63;94.13;101380.13;5031762;28;20223;-80
2021/09/28 05:59:41;;;;;;;10.07;9.07;;;;;;;12.65;93.45;101394.94;5026431;28;20292;-81
2021/09/28 06:02:08;;;;;;;14.13;12.77;;;;;;;12.62;94.02;101397.59;5035260;28;20228;-81
2021/09/28 06:04:35;;;;;;;14.40;13.10;;;;;;;12.59;94.13;101389.78;5034412;28;20210;-81
2021/09/28 06:07:01;;;;;;;12.30;11.20;;;;;;;12.64;93.82;101390.56;5034675;28;20227;-80
2021/09/28 06:09:28;;;;;;;14.07;12.50;;;;;;;12.64;93.86;101408.06;5033906;28;20753;-82
2021/09/28 06:11:56;;;;;;;14.40;12.57;;;;;;;12.72;93.58;101414.06;5034742;28;20207;-82
2021/09/28 06:14:23;;;;;;;13.30;12.10;;;;;;;12.73;93.63;101422.81;5034536;28;20210;-79
2021/09/28 06:16:49;;;;;;;12.43;11.03;;;;;;;12.76;93.84;101420.13;5034400;28;20322;-79
2021/09/28 06:19:16;;;;;;;11.30;10.20;;;;;;;12.77;93.61;101421.88;5034013;28;20581;-82
2021/09/28 06:21:42;;;;;;;10.63;9.53;;;;;;;12.80;93.62;101424.44;5034217;28;20210;-82
2021/09/28 06:24:08;;;;;;;11.10;10.07;;;;;;;12.82;93.63;101417.44;5025392;28;20197;-82
2021/09/28 06:26:35;;;;;;;12.00;10.23;;;;;;;12.78;94.52;101394.78;5034590;28;20232;-82
2021/09/28 06:29:02;;;;;;;10.60;9.60;;;;;;;12.85;94.09;101394.69;5033373;28;20210;-82
2021/09/28 06:31:29;;;;;;;10.97;9.87;;;;;;;12.86;94.50;101391.19;5034282;28;20258;-80
2021/09/28 06:33:55;;;;;;;16.27;12.73;;;;;;;12.72;94.38;101390.47;5034836;28;20261;-82
2021/09/28 06:36:22;;;;;;;13.30;11.97;;;;;;;12.80;94.82;101382.53;5033946;28;20227;-80
2021/09/28 06:38:48;;;;;;;15.77;14.20;;;;;;;12.61;95.45;101358.34;5033698;28;20234;-82
2021/09/28 06:41:15;;;;;;;15.23;13.73;;;;;;;12.63;95.54;101341.72;5033835;28;20692;-82
2021/09/28 06:43:41;;;;;;;13.57;12.37;;;;;;;12.76;96.30;101333.69;5033966;28;20231;-81
2021/09/28 06:46:09;;;;;;;14.77;12.93;;;;;;;12.89;96.01;101335.25;5033586;28;20646;-81
2021/09/28 06:48:35;;;;;;;13.17;11.97;;;;;;;12.99;96.03;101341.22;5024120;28;20602;-81
2021/09/28 06:51:02;;;;;;;16.10;14.47;;;;;;;13.05;96.31;101344.63;5015655;28;20271;-81
2021/09/28 06:53:28;;;;;;;14.70;13.40;;;;;;;13.16;96.13;101343.59;5019215;28;20686;-80
2021/09/28 06:55:54;;;;;;;16.20;14.63;;;;;;;13.20;96.00;101348.78;5026066;28;20273;-81
2021/09/28 06:58:21;;;;;;;15.33;13.40;;;;;;;13.29;96.11;101351.28;5028412;28;20210;-81
2021/09/28 07:00:50;;;;;;;25.53;18.13;;;;;;;13.28;95.66;101361.78;5022729;28;20254;-83
2021/09/28 07:03:18;;;;;;;20.90;18.60;;;;;;;13.18;96.22;101355.81;5034096;28;20239;-81
2021/09/28 07:05:44;;;;;;;23.77;19.20;;;;;;;13.16;96.53;101346.22;5034204;28;20233;-81
2021/09/28 07:08:10;;;;;;;36.67;20.97;;;;;;;13.20;96.56;101340.03;5033387;28;20212;-80
2021/09/28 07:10:37;;;;;;;34.87;20.73;;;;;;;13.15;96.58;101357.59;5034132;28;20204;-80
2021/09/28 07:13:03;;;;;;;28.13;21.90;;;;;;;13.26;97.11;101339.94;5033756;28;20212;-82
2021/09/28 07:15:30;;;;;;;32.00;19.53;;;;;;;13.35;96.48;101362.56;5033854;28;20226;-81
2021/09/28 07:17:56;;;;;;;25.87;19.90;;;;;;;13.39;96.09;101367.72;5033697;28;20262;-81
2021/09/28 07:20:24;;;;;;;34.33;20.53;;;;;;;13.30;95.80;101389.72;5033583;28;20207;-83
2021/09/28 07:22:50;;;;;;;36.53;21.47;;;;;;;13.31;95.33;101393.22;5034468;28;20231;-81
2021/09/28 07:25:17;;;;;;;26.30;20.47;;;;;;;13.53;95.42;101385.03;5033993;28;20744;-81
2021/09/28 07:27:44;;;;;;;30.33;20.90;;;;;;;13.68;95.39;101395.28;5033897;28;20286;-80
2021/09/28 07:30:11;;;;;;;33.57;21.23;;;;;;;13.80;95.31;101404.69;5021938;28;20212;-82
2021/09/28 07:32:38;;;;;;;31.23;20.30;;;;;;;13.93;94.89;101407.97;5029225;28;20209;-81
2021/09/28 07:35:06;;;;;;;30.27;20.43;;;;;;;13.92;94.48;101433.34;5033743;28;20573;-81
2021/09/28 07:37:34;;;;;;;22.67;19.37;;;;;;;13.77;94.06;101460.69;5033926;28;20222;-81
2021/09/28 07:40:01;;;;;;;26.63;20.40;;;;;;;13.84;94.24;101453.63;5033363;28;20257;-81
2021/09/28 07:42:28;;;;;;;27.13;20.07;;;;;;;13.85;94.43;101455.34;5036732;28;20277;-81
2021/09/28 07:44:56;;;;;;;32.47;20.70;;;;;;;13.94;93.82;101467.47;5038174;28;20204;-81
2021/09/28 07:47:22;;;;;;;29.10;20.17;;;;;;;13.90;93.31;101485.88;5037284;28;20723;-81
2021/09/28 07:49:49;;;;;;;30.33;19.27;;;;;;;14.03;92.79;101504.03;5037869;28;20250;-82
2021/09/28 07:52:16;;;;;;;32.10;21.43;;;;;;;13.88;93.21;101494.66;5038564;28;20210;-81
2021/09/28 07:54:43;;;;;;;34.83;22.40;;;;;;;13.76;93.34;101490.47;5038379;28;20206;-79
2021/09/28 07:57:10;;;;;;;32.13;21.60;;;;;;;13.85;93.13;101479.81;5037501;28;20224;-81
2021/09/28 07:59:38;;;;;;;32.30;20.67;;;;;;;13.96;92.59;101505.06;5029914;28;20281;-81
2021/09/28 08:02:05;;;;;;;26.73;19.63;;;;;;;13.74;91.16;101551.75;5029334;28;20197;-81
2021/09/28 08:04:31;;;;;;;25.50;19.93;;;;;;;13.74;90.89;101572.75;5038163;28;20258;-80
2021/09/28 08:06:58;;;;;;;22.90;19.93;;;;;;;13.43;90.78;101575.75;5037746;28;20219;-80
2021/09/28 08:09:24;;;;;;;32.47;21.07;;;;;;;13.56;91.59;101540.63;5037435;28;20213;-80
2021/09/28 08:11:53;;;;;;;26.97;20.33;;;;;;;13.37;91.35;101555.72;5037327;28;20212;-80
2021/09/28 08:14:19;;;;;;;27.67;20.43;;;;;;;13.36;92.13;101519.00;5037470;28;20815;-82
2021/09/28 08:16:46;;;;;;;27.53;20.97;;;;;;;13.45;91.95;101532.00;5038854;28;20236;-80
2021/09/28 08:19:12;;;;;;;26.70;19.70;;;;;;;13.37;91.13;101550.47;5037098;28;20211;-81
2021/09/28 08:21:38;;;;;;;26.57;20.07;;;;;;;13.42;91.51;101545.16;5037850;28;20208;-80
2021/09/28 08:24:07;;;;;;;23.27;19.83;;;;;;;13.53;91.89;101538.03;5038017;28;20252;-80
2021/09/28 08:29:35;;;;;;;26.83;21.30;;;;;;;13.77;91.14;101560.41;5006551;28;20262;-79
2021/09/28 08:32:02;;;;;;;27.17;20.47;;;;;;;13.97;91.98;101538.28;5007395;28;20196;-80
2021/09/28 08:34:29;;;;;;;26.77;21.10;;;;;;;13.90;90.60;101564.63;5025453;28;20295;-81
2021/09/28 08:36:55;;;;;;;29.57;21.43;;;;;;;13.87;90.09;101585.69;5037729;28;20230;-81
2021/09/28 08:39:21;;;;;;;28.97;20.87;;;;;;;13.81;89.36;101614.59;5037372;28;20285;-80
2021/09/28 08:41:51;;;;;;;31.93;22.47;;;;;;;13.69;90.11;101605.13;5037734;28;20220;-81
2021/09/28 08:44:18;;;;;;;30.70;21.93;;;;;;;13.98;91.36;101555.78;5036766;28;20268;-80
2021/09/28 08:46:48;;;;;;;29.80;23.03;;;;;;;14.16;90.61;101581.75;5037126;28;20642;-78
2021/09/28 08:49:15;;;;;;;27.67;22.07;;;;;;;14.22;89.10;101628.06;5036417;28;20560;-78
2021/09/28 08:51:43;;;;;;;23.07;20.73;;;;;;;14.38;88.79;101649.69;5036409;28;20206;-80
2021/09/28 08:54:09;;;;;;;28.97;21.83;;;;;;;14.24;87.54;101692.78;5037822;28;20253;-80
2021/09/28 08:56:35;;;;;;;26.03;22.23;;;;;;;13.99;88.39;101686.97;5037634;28;20251;-81
2021/09/28 08:59:05;;;;;;;25.67;22.83;;;;;;;14.03;88.47;101672.97;5028494;28;20696;-78
2021/09/28 09:01:37;;;;;;;28.20;22.47;;;;;;;14.02;88.35;101673.84;5028869;28;20258;-79
2021/09/28 09:04:18;;;;;;;24.33;21.90;;;;;;;13.98;89.03;101637.16;5037283;28;20269;-78
2021/09/28 09:06:45;;;;;;;32.73;23.63;;;;;;;14.13;89.17;101621.16;5037173;28;20231;-81
2021/09/28 09:09:12;;;;;;;27.47;22.03;;;;;;;14.21;88.83;101631.56;5036621;28;20283;-80
2021/09/28 09:11:41;;;;;;;27.00;22.43;;;;;;;14.35;88.16;101653.25;5037127;28;20228;-79
2021/09/28 09:14:18;;;;;;;27.67;22.87;;;;;;;14.30;89.23;101624.41;5036583;28;20264;-80
2021/09/28 09:16:46;;;;;;;28.70;21.77;;;;;;;14.39;88.44;101641.78;5037138;28;20294;-77
2021/09/28 09:19:16;;;;;;;24.17;21.53;;;;;;;14.54;88.15;101651.19;5036433;28;20206;-79
2021/09/28 09:21:49;;;;;;;24.43;20.70;;;;;;;14.43;86.85;101689.88;5037638;28;20259;-80
2021/09/28 09:24:41;;;;;;;22.17;20.17;;;;;;;14.56;87.45;101680.97;5037572;28;20211;-80
2021/09/28 09:27:08;;;;;;;32.73;21.57;;;;;;;14.23;86.73;101703.31;5037364;28;20717;-81
2021/09/28 09:29:35;;;;;;;25.07;21.73;;;;;;;14.12;87.16;101676.34;5027804;28;20950;-79
2021/09/28 09:32:01;;;;;;;32.60;21.40;;;;;;;14.20;88.45;101624.56;5028887;28;20203;-80
2021/09/28 09:34:28;;;;;;;22.27;20.00;;;;;;;14.24;88.06;101640.25;5036268;28;20207;-81
2021/09/28 09:36:58;;;;;;;26.77;19.47;;;;;;;14.24;87.63;101655.16;5037081;28;20856;-80
2021/09/28 09:39:26;;;;;;;21.87;19.57;;;;;;;14.33;87.46;101654.13;5036666;28;20616;-80
2021/09/28 09:42:04;;;;;;;20.23;18.13;;;;;;;14.27;86.44;101698.00;5036231;28;20211;-80
2021/09/28 09:44:31;;;;;;;21.20;19.13;;;;;;;14.28;86.50;101704.97;5035868;28;20232;-79
2021/09/28 09:46:59;;;;;;;20.67;18.60;;;;;;;14.29;86.67;101693.59;5035762;28;20316;-79
2021/09/28 09:49:27;;;;;;;24.93;18.97;;;;;;;14.44;86.15;101703.00;5035580;28;20204;-80
2021/09/28 09:51:58;;;;;;;20.17;17.30;;;;;;;14.56;85.70;101730.88;5036096;28;20204;-80
2021/09/28 09:54:31;;;;;;;24.97;18.77;;;;;;;14.63;84.91;101745.69;5035917;28;20209;-81
2021/09/28 09:56:57;;;;;;;18.93;17.07;;;;;;;14.73;85.41;101735.00;5035144;28;20224;-80
2021/09/28 09:59:25;;;;;;;23.17;17.63;;;;;;;14.72;84.27;101783.22;5026260;28;20209;-80
2021/09/28 10:01:53;;;;;;;20.27;17.73;;;;;;;14.80;84.39;101773.47;5026965;28;20204;-80
2021/09/28 10:04:21;;;;;;;20.23;18.20;;;;;;;14.98;85.48;101735.50;5034321;28;20232;-80
2021/09/28 10:06:48;;;;;;;16.83;15.03;;;;;;;15.07;84.19;101765.16;5035301;28;20278;-79
2021/09/28 10:09:20;;;;;;;17.03;15.20;;;;;;;15.17;83.30;101801.84;5035416;28;20209;-81
2021/09/28 10:11:52;;;;;;;15.97;14.30;;;;;;;14.84;81.56;101860.16;5035967;28;20220;-81
2021/09/28 10:14:29;;;;;;;17.67;15.87;;;;;;;14.86;83.10;101811.03;5035061;28;20203;-80
2021/09/28 10:16:56;;;;;;;15.73;14.10;;;;;;;14.85;83.46;101787.44;5035992;28;20717;-80
2021/09/28 10:19:43;;;;;;;15.83;14.30;;;;;;;14.95;83.80;101759.22;5035803;28;20207;-80
2021/09/28 10:22:48;;;;;;;17.03;14.57;;;;;;;14.88;82.53;101814.53;5035383;28;20212;-80
2021/09/28 10:25:31;;;;;;;14.40;12.93;;;;;;;15.09;82.94;101792.28;5034815;28;20603;-80
2021/09/28 10:28:19;;;;;;;13.10;11.67;;;;;;;15.23;83.25;101784.19;5033178;28;20248;-80
2021/09/28 10:30:47;;;;;;;17.03;14.20;;;;;;;15.21;80.83;101850.88;5023738;28;20200;-79
2021/09/28 10:33:31;;;;;;;13.80;12.40;;;;;;;15.19;81.39;101840.38;4996198;28;20255;-80
2021/09/28 10:36:00;;;;;;;13.80;12.60;;;;;;;15.40;81.88;101814.59;4995688;28;20246;-80
2021/09/28 10:38:58;;;;;;;15.00;12.97;;;;;;;15.44;81.13;101842.59;4995175;28;20292;-77
2021/09/28 10:41:38;;;;;;;12.17;10.97;;;;;;;15.49;80.52;101881.09;4995375;28;20704;-80
2021/09/28 10:44:47;;;;;;;16.73;11.60;;;;;;;15.62;80.22;101870.38;4995567;28;20701;-79
2021/09/28 10:47:49;;;;;;;12.73;11.57;;;;;;;15.55;78.45;101929.28;4995389;28;20234;-80
2021/09/28 10:50:19;;;;;;;10.97;9.83;;;;;;;15.67;77.71;101964.16;4995406;28;20195;-80
2021/09/28 10:52:46;;;;;;;10.67;9.57;;;;;;;15.71;77.54;101972.03;4995554;28;20198;-80
2021/09/28 10:55:22;;;;;;;13.83;9.63;;;;;;;15.72;78.05;101950.94;4995294;28;20759;-80
2021/09/28 10:58:03;;;;;;;9.90;8.90;;;;;;;15.92;77.17;101965.59;4995282;28;20209;-80
2021/09/28 11:00:37;;;;;;;10.47;9.57;;;;;;;16.11;78.11;101935.38;5022877;28;20271;-80
2021/09/28 11:03:04;;;;;;;9.70;8.70;;;;;;;16.25;77.32;101957.09;5033603;28;20228;-80
2021/09/28 11:05:37;;;;;;;10.50;9.50;;;;;;;16.45;77.18;101947.91;5034014;28;20259;-80
2021/09/28 11:08:06;;;;;;;9.33;8.37;;;;;;;16.48;76.00;101976.88;5033952;28;20228;-79
2021/09/28 11:10:33;;;;;;;12.23;8.80;;;;;;;16.07;75.86;102005.72;5034331;28;20210;-81
2021/09/28 11:13:06;;;;;;;8.53;7.70;;;;;;;16.17;76.49;101969.50;5034220;28;20209;-80
2021/09/28 11:15:33;;;;;;;9.40;8.30;;;;;;;16.29;75.73;101986.88;5034071;28;20228;-80
2021/09/28 11:18:08;;;;;;;10.57;8.90;;;;;;;16.30;74.33;102028.16;5034457;28;20194;-82
2021/09/28 11:20:36;;;;;;;10.57;9.53;;;;;;;16.41;74.29;102020.94;5034440;28;20195;-81
2021/09/28 11:23:07;;;;;;;8.13;6.50;;;;;;;16.42;71.67;102106.13;5034227;28;20210;-81
2021/09/28 11:25:35;;;;;;;13.57;7.53;;;;;;;16.56;72.47;102113.81;5034032;28;20225;-80